Time;durP1;ratioP1;P1;durP2;ratioP2;P2;SDS_P1;SDS_P2;PMS_P1;PMS_P2;Temp;Humidity;BMP_temperature;BMP_pressure;BME280_temperature;BME280_humidity;BME280_pressure;Samples;Min_cycle;Max_cycle;Signal;HPM_P1;HPM_P2
2021/07/15 00:00:13;;;;;;;51.57;23.70;;;17.30;99.90;;;;;;5021557;28;20554;-68
2021/07/15 00:02:40;;;;;;;30.40;23.57;;;17.40;99.90;;;;;;5021265;28;20476;-70
2021/07/15 00:05:10;;;;;;;23.33;20.83;;;17.40;99.90;;;;;;5025215;28;20803;-70
2021/07/15 00:07:39;;;;;;;31.90;22.50;;;17.40;99.90;;;;;;5023969;28;20471;-70
2021/07/15 00:10:12;;;;;;;38.67;22.10;;;17.30;99.90;;;;;;5025328;28;20973;-70
2021/07/15 00:12:43;;;;;;;42.63;23.70;;;17.30;99.90;;;;;;5019007;28;20465;-68
2021/07/15 00:15:14;;;;;;;41.10;22.33;;;17.30;99.90;;;;;;5015241;28;20457;-68
2021/07/15 00:17:41;;;;;;;35.40;23.90;;;17.40;99.90;;;;;;5021920;28;20475;-70
2021/07/15 00:20:13;;;;;;;44.73;24.10;;;17.40;99.90;;;;;;5023005;28;20466;-69
2021/07/15 00:22:40;;;;;;;33.70;24.90;;;17.30;99.90;;;;;;5023890;28;20499;-68
2021/07/15 00:25:11;;;;;;;32.80;24.70;;;17.30;99.90;;;;;;5020142;28;20473;-69
2021/07/15 00:27:38;;;;;;;32.03;24.07;;;17.40;99.90;;;;;;5019766;28;20960;-68
2021/07/15 00:30:08;;;;;;;41.70;24.27;;;17.40;99.90;;;;;;5021771;28;20468;-69
2021/07/15 00:32:36;;;;;;;37.13;25.97;;;17.30;99.90;;;;;;5024221;28;20461;-69
2021/07/15 00:35:03;;;;;;;48.47;25.10;;;17.30;99.90;;;;;;5022279;28;20460;-69
2021/07/15 00:37:30;;;;;;;34.10;24.03;;;17.30;99.90;;;;;;5022249;28;20499;-71
2021/07/15 00:39:56;;;;;;;38.83;26.90;;;17.20;99.90;;;;;;5019721;28;20484;-70
2021/07/15 00:42:24;;;;;;;36.17;25.80;;;17.30;99.90;;;;;;5019935;28;20466;-69
2021/07/15 00:44:51;;;;;;;31.73;25.20;;;17.40;99.90;;;;;;5016445;28;20877;-69
2021/07/15 00:47:20;;;;;;;37.90;24.50;;;17.30;99.90;;;;;;5021886;28;20462;-71
2021/07/15 00:49:48;;;;;;;39.67;25.10;;;17.40;99.90;;;;;;5022402;28;20465;-71
2021/07/15 00:52:16;;;;;;;31.43;25.70;;;17.40;99.90;;;;;;5020432;28;20461;-70
2021/07/15 00:54:44;;;;;;;34.17;26.30;;;17.40;99.90;;;;;;5023100;28;20728;-70
2021/07/15 00:57:11;;;;;;;38.90;26.50;;;17.40;99.90;;;;;;5021815;28;21022;-68
2021/07/15 00:59:38;;;;;;;36.30;26.10;;;17.40;99.90;;;;;;5020457;28;20467;-69
2021/07/15 01:02:05;;;;;;;35.37;27.13;;;17.40;99.90;;;;;;5026609;28;20465;-69
2021/07/15 01:04:35;;;;;;;35.97;25.63;;;17.40;99.90;;;;;;5021233;28;20471;-69
2021/07/15 01:07:03;;;;;;;38.40;27.23;;;17.40;99.90;;;;;;5017483;28;20469;-70
2021/07/15 01:09:32;;;;;;;43.13;27.37;;;17.30;99.90;;;;;;5020601;28;20465;-69
2021/07/15 01:12:10;;;;;;;44.50;28.87;;;17.30;99.90;;;;;;5022309;28;20955;-69
2021/07/15 01:14:46;;;;;;;34.07;26.67;;;17.40;99.90;;;;;;5023547;28;20468;-71
2021/07/15 01:17:19;;;;;;;38.37;26.07;;;17.50;99.90;;;;;;5023459;28;20494;-70
2021/07/15 01:20:23;;;;;;;32.07;25.87;;;17.40;99.90;;;;;;5021197;28;20625;-69
2021/07/15 01:23:03;;;;;;;35.90;26.60;;;17.40;99.90;;;;;;5016598;28;20469;-70
2021/07/15 01:26:00;;;;;;;37.77;27.20;;;17.50;99.90;;;;;;5016736;28;20484;-69
2021/07/15 01:28:32;;;;;;;31.80;25.10;;;17.40;99.90;;;;;;5016417;28;20469;-70
2021/07/15 01:31:03;;;;;;;41.37;27.87;;;17.40;99.90;;;;;;5017276;28;20523;-69
2021/07/15 01:33:34;;;;;;;39.73;29.23;;;17.40;99.90;;;;;;5019193;28;20540;-71
2021/07/15 01:36:05;;;;;;;38.57;27.37;;;17.40;99.90;;;;;;5020131;28;20906;-69
2021/07/15 01:38:34;;;;;;;45.10;28.77;;;17.40;99.90;;;;;;5022034;28;20456;-69
2021/07/15 01:41:05;;;;;;;37.90;29.73;;;17.40;99.90;;;;;;5016325;28;20490;-69
2021/07/15 01:43:36;;;;;;;60.73;32.27;;;17.40;99.90;;;;;;5020326;28;20461;-69
2021/07/15 01:46:05;;;;;;;43.37;31.20;;;17.40;99.90;;;;;;5024282;28;20569;-71
2021/07/15 01:48:33;;;;;;;43.47;29.87;;;17.40;99.90;;;;;;5022646;28;20460;-69
2021/07/15 01:51:01;;;;;;;46.13;31.57;;;17.30;99.90;;;;;;5021466;28;20825;-69
2021/07/15 01:53:28;;;;;;;50.87;31.40;;;17.40;99.90;;;;;;5019789;28;20461;-69
2021/07/15 01:55:56;;;;;;;48.80;30.60;;;17.40;99.90;;;;;;5018274;28;20467;-69
2021/07/15 01:58:27;;;;;;;56.07;30.60;;;17.40;99.90;;;;;;5015280;28;20461;-71
2021/07/15 02:00:55;;;;;;;42.37;31.73;;;17.40;99.90;;;;;;5017413;28;20476;-69
2021/07/15 02:03:26;;;;;;;40.10;26.33;;;17.40;99.90;;;;;;5020614;28;20468;-69
2021/07/15 02:05:54;;;;;;;46.90;29.40;;;17.60;99.90;;;;;;5016934;28;20477;-70
2021/07/15 02:08:23;;;;;;;49.30;31.50;;;17.60;99.90;;;;;;5023014;28;20460;-69
2021/07/15 02:10:51;;;;;;;51.70;30.60;;;17.60;99.90;;;;;;5023008;28;20469;-69
2021/07/15 02:13:19;;;;;;;44.97;30.00;;;17.70;99.90;;;;;;5013902;28;20825;-70
2021/07/15 02:15:48;;;;;;;46.67;31.43;;;17.60;99.90;;;;;;5021809;28;20492;-71
2021/07/15 02:18:18;;;;;;;52.43;30.80;;;17.60;99.90;;;;;;5021388;28;20900;-70
2021/07/15 02:20:51;;;;;;;41.07;30.23;;;17.70;99.90;;;;;;5021147;28;20472;-71
2021/07/15 02:23:19;;;;;;;48.03;30.33;;;17.70;99.90;;;;;;5017320;28;20462;-68
2021/07/15 02:25:49;;;;;;;44.80;30.10;;;17.80;99.90;;;;;;5019728;28;20461;-70
2021/07/15 02:28:20;;;;;;;48.50;31.57;;;17.80;99.90;;;;;;5019777;28;20667;-70
2021/07/15 02:30:50;;;;;;;47.67;30.47;;;17.80;99.90;;;;;;5017933;28;20472;-71
2021/07/15 02:33:20;;;;;;;52.13;31.97;;;17.80;99.90;;;;;;5016554;28;20666;-70
2021/07/15 02:35:52;;;;;;;50.30;30.80;;;17.80;99.90;;;;;;5017138;28;20491;-70
2021/07/15 02:38:23;;;;;;;45.17;30.50;;;17.80;99.90;;;;;;5013879;28;20519;-70
2021/07/15 02:40:51;;;;;;;47.20;30.53;;;17.80;99.90;;;;;;5025701;28;20480;-69
2021/07/15 02:43:18;;;;;;;47.03;30.43;;;17.80;99.90;;;;;;5027549;28;20452;-70
2021/07/15 02:45:45;;;;;;;54.70;30.30;;;17.80;99.90;;;;;;5024803;28;20482;-69
2021/07/15 02:48:13;;;;;;;61.37;30.40;;;17.80;99.90;;;;;;5019970;28;20842;-68
2021/07/15 02:50:40;;;;;;;44.63;30.77;;;17.80;99.90;;;;;;5020106;28;20959;-71
2021/07/15 02:53:08;;;;;;;66.87;31.53;;;17.80;99.90;;;;;;5021995;28;20464;-69
2021/07/15 02:55:36;;;;;;;74.93;33.17;;;17.80;99.90;;;;;;5019416;28;20461;-68
2021/07/15 02:58:08;;;;;;;78.07;34.93;;;17.70;99.90;;;;;;5030244;28;20496;-70
2021/07/15 03:00:38;;;;;;;58.23;33.50;;;17.70;99.90;;;;;;5026359;28;20960;-68
2021/07/15 03:03:15;;;;;;;73.47;36.93;;;17.60;99.90;;;;;;5024059;28;20871;-69
2021/07/15 03:05:49;;;;;;;66.67;36.07;;;17.70;99.90;;;;;;5019678;28;20475;-70
2021/07/15 03:08:24;;;;;;;83.97;36.77;;;17.70;99.90;;;;;;5022889;28;20464;-70
2021/07/15 03:10:53;;;;;;;85.63;37.30;;;17.50;99.90;;;;;;5026003;28;20468;-71
2021/07/15 03:13:21;;;;;;;97.73;38.30;;;17.50;99.90;;;;;;5018267;28;20540;-69
2021/07/15 03:15:48;;;;;;;56.80;34.93;;;17.50;99.90;;;;;;5023509;28;20468;-70
2021/07/15 03:18:19;;;;;;;71.37;37.40;;;17.60;99.90;;;;;;5024606;28;20576;-68
2021/07/15 03:20:46;;;;;;;88.97;38.87;;;17.60;99.90;;;;;;5023527;28;20547;-69
2021/07/15 03:23:17;;;;;;;88.10;39.10;;;17.60;99.90;;;;;;5023759;28;20474;-68
2021/07/15 03:25:49;;;;;;;92.37;42.20;;;17.60;99.90;;;;;;5022676;28;20462;-69
2021/07/15 03:28:19;;;;;;;119.20;41.67;;;17.40;99.90;;;;;;5024005;28;20500;-69
2021/07/15 03:30:47;;;;;;;105.87;40.27;;;17.30;99.90;;;;;;5022440;28;20897;-68
2021/07/15 03:33:15;;;;;;;119.57;39.73;;;17.40;99.90;;;;;;5021125;28;20546;-69
2021/07/15 03:35:43;;;;;;;96.20;38.67;;;17.50;99.90;;;;;;5021475;28;20490;-70
2021/07/15 03:38:13;;;;;;;102.17;37.73;;;17.60;99.90;;;;;;5026277;28;20490;-70
2021/07/15 03:40:41;;;;;;;99.07;37.40;;;17.60;99.90;;;;;;5021482;28;21003;-70
2021/07/15 03:43:15;;;;;;;107.43;37.47;;;17.60;99.90;;;;;;5023106;28;20461;-69
2021/07/15 03:45:45;;;;;;;93.80;38.23;;;17.60;99.90;;;;;;5022568;28;20996;-70
2021/07/15 03:48:12;;;;;;;99.07;39.30;;;17.60;99.90;;;;;;5022824;28;20555;-70
2021/07/15 03:50:39;;;;;;;132.60;42.67;;;17.60;99.90;;;;;;5025600;28;20458;-69
2021/07/15 03:53:07;;;;;;;86.87;39.00;;;17.60;99.90;;;;;;5017129;28;20465;-70
2021/07/15 03:55:37;;;;;;;113.03;41.97;;;17.50;99.90;;;;;;5020857;28;20956;-71
2021/07/15 03:58:09;;;;;;;140.00;41.40;;;17.50;99.90;;;;;;5024623;28;20578;-71
2021/07/15 04:00:41;;;;;;;118.30;40.80;;;17.50;99.90;;;;;;5016211;28;20556;-69
2021/07/15 04:03:11;;;;;;;104.70;40.90;;;17.50;99.90;;;;;;5020019;28;20908;-69
2021/07/15 04:05:41;;;;;;;97.77;39.87;;;17.60;99.90;;;;;;5020736;28;20831;-70
2021/07/15 04:08:09;;;;;;;142.03;42.70;;;17.60;99.90;;;;;;5017710;28;20461;-70
2021/07/15 04:10:40;;;;;;;108.17;39.33;;;17.50;99.90;;;;;;5018548;28;20462;-70
2021/07/15 04:13:08;;;;;;;96.10;37.77;;;17.50;99.90;;;;;;5023742;28;20464;-70
2021/07/15 04:15:57;;;;;;;112.20;38.60;;;17.50;99.90;;;;;;5021307;28;20471;-70
2021/07/15 04:18:29;;;;;;;95.23;38.20;;;17.50;99.90;;;;;;5024413;28;20495;-70
2021/07/15 04:20:56;;;;;;;77.73;37.10;;;17.60;99.90;;;;;;5016788;28;20555;-69
2021/07/15 04:23:26;;;;;;;92.57;37.80;;;17.60;99.90;;;;;;5024450;28;20467;-71
2021/07/15 04:25:55;;;;;;;85.27;36.43;;;17.60;99.90;;;;;;5017563;28;20469;-69
2021/07/15 04:28:24;;;;;;;77.23;36.33;;;17.60;99.90;;;;;;5023059;28;20555;-69
2021/07/15 04:30:55;;;;;;;72.73;37.47;;;17.70;99.90;;;;;;5022697;28;20465;-71
2021/07/15 04:33:25;;;;;;;83.70;37.00;;;17.70;99.90;;;;;;5023849;28;20457;-69
2021/07/15 04:35:55;;;;;;;96.77;38.10;;;17.70;99.90;;;;;;5021389;28;20492;-68
2021/07/15 04:38:23;;;;;;;79.67;36.00;;;17.70;99.90;;;;;;5025606;28;20497;-71
2021/07/15 04:40:53;;;;;;;95.23;38.17;;;17.80;99.90;;;;;;5022768;28;20496;-70
2021/07/15 04:43:20;;;;;;;88.40;36.33;;;17.80;99.90;;;;;;5022871;28;20464;-70
2021/07/15 04:45:49;;;;;;;93.77;38.53;;;17.80;99.90;;;;;;5022991;28;20472;-70
2021/07/15 04:48:19;;;;;;;78.40;39.13;;;17.70;99.90;;;;;;5019547;28;20461;-70
2021/07/15 04:50:48;;;;;;;94.13;40.67;;;17.70;99.90;;;;;;5025182;28;20953;-71
2021/07/15 04:53:19;;;;;;;74.10;37.43;;;17.70;99.90;;;;;;5020722;28;20465;-69
2021/07/15 04:55:49;;;;;;;69.90;36.80;;;17.70;99.90;;;;;;5023058;28;20460;-68
2021/07/15 04:58:16;;;;;;;80.17;36.30;;;17.70;99.90;;;;;;5016955;28;20485;-69
2021/07/15 05:00:43;;;;;;;70.73;36.00;;;17.70;99.90;;;;;;5023278;28;20531;-69
2021/07/15 05:03:26;;;;;;;81.63;36.83;;;17.70;99.90;;;;;;5017331;28;20481;-72
2021/07/15 05:05:53;;;;;;;79.87;36.03;;;17.70;99.90;;;;;;5016161;28;20469;-71
2021/07/15 05:08:21;;;;;;;72.30;36.63;;;17.80;99.90;;;;;;5016850;28;20457;-69
2021/07/15 05:10:47;;;;;;;87.47;42.17;;;17.90;99.90;;;;;;5013974;28;20540;-69
2021/07/15 05:13:14;;;;;;;84.63;43.20;;;17.80;99.90;;;;;;5016067;28;20473;-69
2021/07/15 05:15:41;;;;;;;81.87;39.90;;;17.80;99.90;;;;;;5016384;28;20992;-69
2021/07/15 05:18:08;;;;;;;70.60;38.70;;;17.80;99.90;;;;;;5015555;28;21025;-69
2021/07/15 05:20:37;;;;;;;84.67;38.90;;;17.90;99.90;;;;;;5018342;28;20457;-70
2021/07/15 05:23:03;;;;;;;84.27;40.07;;;18.00;99.90;;;;;;5020746;28;20481;-68
2021/07/15 05:25:31;;;;;;;77.57;38.40;;;18.10;99.90;;;;;;5019206;28;20661;-72
2021/07/15 05:27:58;;;;;;;77.57;40.63;;;18.20;99.90;;;;;;5018779;28;20465;-69
2021/07/15 05:30:26;;;;;;;71.47;40.83;;;18.20;99.90;;;;;;5020091;28;20486;-71
2021/07/15 05:32:53;;;;;;;71.00;40.73;;;18.20;99.90;;;;;;5018840;28;20468;-70
2021/07/15 05:35:21;;;;;;;80.47;44.17;;;18.10;99.90;;;;;;5027108;28;20453;-69
2021/07/15 05:37:50;;;;;;;76.03;42.73;;;18.20;99.90;;;;;;5023711;28;20488;-70
2021/07/15 05:40:18;;;;;;;77.97;41.97;;;18.20;99.90;;;;;;5023607;28;20500;-69
2021/07/15 05:42:46;;;;;;;78.47;42.10;;;18.20;99.90;;;;;;5025649;28;20472;-67
2021/07/15 05:45:12;;;;;;;77.67;41.93;;;18.20;99.90;;;;;;5018412;28;21537;-69
2021/07/15 05:47:39;;;;;;;76.37;41.10;;;18.30;99.90;;;;;;5023110;28;20457;-69
2021/07/15 05:50:07;;;;;;;69.77;38.67;;;18.50;99.90;;;;;;5022021;28;20465;-70
2021/07/15 05:52:34;;;;;;;84.80;40.83;;;18.50;99.90;;;;;;5017736;28;20470;-69
2021/07/15 05:55:02;;;;;;;76.07;37.70;;;18.50;99.90;;;;;;5022656;28;20457;-68
2021/07/15 05:57:32;;;;;;;78.83;37.63;;;18.60;99.90;;;;;;5020844;28;20491;-70
2021/07/15 05:59:59;;;;;;;78.27;38.53;;;18.60;99.90;;;;;;5019153;28;20877;-69
2021/07/15 06:02:26;;;;;;;72.40;36.70;;;18.60;99.90;;;;;;5020431;28;20461;-71
2021/07/15 06:04:53;;;;;;;49.53;33.20;;;18.50;99.90;;;;;;5021356;28;20473;-69
2021/07/15 06:07:20;;;;;;;58.93;33.23;;;18.60;99.90;;;;;;5021289;28;21018;-68
2021/07/15 06:09:48;;;;;;;63.03;34.23;;;18.60;99.90;;;;;;5022509;28;20465;-69
2021/07/15 06:12:16;;;;;;;59.90;35.27;;;18.50;99.90;;;;;;5018302;28;20457;-69
2021/07/15 06:14:43;;;;;;;54.17;32.87;;;18.40;99.90;;;;;;5022869;28;20968;-70
2021/07/15 06:17:09;;;;;;;58.97;33.00;;;18.40;99.90;;;;;;5024097;28;20463;-69
2021/07/15 06:19:36;;;;;;;55.83;33.03;;;18.50;99.90;;;;;;5026231;28;20484;-69
2021/07/15 06:22:05;;;;;;;53.30;33.30;;;18.60;99.90;;;;;;5022086;28;20985;-71
2021/07/15 06:24:32;;;;;;;53.57;32.47;;;18.70;99.90;;;;;;5025079;28;20512;-69
2021/07/15 06:27:00;;;;;;;61.17;33.93;;;18.70;99.90;;;;;;5017055;28;20563;-69
2021/07/15 06:29:28;;;;;;;68.43;34.60;;;18.70;99.90;;;;;;5024884;28;20929;-69
2021/07/15 06:31:55;;;;;;;54.07;33.37;;;18.60;99.90;;;;;;5023369;28;20622;-72
2021/07/15 06:34:23;;;;;;;64.83;34.10;;;18.70;99.90;;;;;;5023497;28;20468;-69
2021/07/15 06:36:51;;;;;;;64.90;34.73;;;18.60;99.90;;;;;;5022380;28;20480;-71
2021/07/15 06:39:18;;;;;;;60.23;34.50;;;18.50;99.90;;;;;;5026908;28;20497;-70
2021/07/15 06:41:45;;;;;;;60.27;34.87;;;18.50;99.90;;;;;;5019625;28;20616;-69
2021/07/15 06:44:14;;;;;;;74.63;39.40;;;18.50;99.90;;;;;;5027247;28;20472;-68
2021/07/15 06:46:44;;;;;;;70.60;35.33;;;18.50;99.90;;;;;;5024965;28;20535;-70
2021/07/15 06:49:11;;;;;;;70.43;37.37;;;18.60;99.90;;;;;;5024257;28;21003;-68
2021/07/15 06:51:38;;;;;;;72.70;36.90;;;18.60;99.90;;;;;;5025427;28;20472;-71
2021/07/15 06:54:05;;;;;;;72.20;37.90;;;18.60;99.90;;;;;;5020563;28;20467;-69
2021/07/15 06:56:32;;;;;;;76.23;38.27;;;18.60;99.90;;;;;;5026354;28;20830;-70
2021/07/15 06:58:59;;;;;;;77.43;36.10;;;18.60;99.90;;;;;;5025741;28;20503;-69
2021/07/15 07:01:26;;;;;;;56.60;34.97;;;18.70;99.90;;;;;;5023280;28;20461;-70
2021/07/15 07:03:55;;;;;;;79.67;36.40;;;18.70;99.90;;;;;;5024801;28;20465;-70
2021/07/15 07:06:22;;;;;;;62.77;36.80;;;18.70;99.90;;;;;;5025083;28;20457;-70
2021/07/15 07:08:49;;;;;;;61.83;36.30;;;18.80;99.90;;;;;;5025019;28;20464;-69
2021/07/15 07:11:16;;;;;;;69.57;36.30;;;18.80;99.90;;;;;;5025141;28;21105;-69
2021/07/15 07:13:43;;;;;;;70.07;35.93;;;18.80;99.90;;;;;;5025560;28;20472;-68
2021/07/15 07:16:10;;;;;;;78.13;35.40;;;18.70;99.90;;;;;;5026275;28;20457;-69
2021/07/15 07:18:38;;;;;;;80.13;35.37;;;18.70;99.90;;;;;;5026207;28;20508;-69
2021/07/15 07:21:07;;;;;;;96.83;39.30;;;18.70;99.90;;;;;;5017910;28;20523;-71
2021/07/15 07:23:33;;;;;;;75.30;39.43;;;18.80;99.90;;;;;;5026643;28;20472;-69
2021/07/15 07:26:00;;;;;;;87.80;39.77;;;18.80;99.90;;;;;;5021414;28;20460;-68
2021/07/15 07:28:27;;;;;;;72.23;39.70;;;18.90;99.90;;;;;;5024861;28;20999;-69
2021/07/15 07:30:55;;;;;;;70.20;41.37;;;19.00;99.90;;;;;;5021113;28;20520;-71
2021/07/15 07:33:22;;;;;;;95.10;41.40;;;19.00;99.90;;;;;;5021160;28;20468;-70
2021/07/15 07:35:49;;;;;;;96.77;41.97;;;19.20;99.90;;;;;;5026847;28;20484;-70
2021/07/15 07:38:17;;;;;;;83.70;43.77;;;19.30;99.90;;;;;;5024067;28;20487;-70
2021/07/15 07:40:44;;;;;;;97.90;42.93;;;19.30;99.90;;;;;;5019116;28;20495;-71
2021/07/15 07:43:11;;;;;;;93.73;41.47;;;19.40;99.90;;;;;;5025500;28;20487;-71
2021/07/15 07:45:37;;;;;;;90.10;43.70;;;19.70;99.90;;;;;;5025976;28;20476;-70
2021/07/15 07:48:05;;;;;;;72.67;41.27;;;19.70;99.90;;;;;;5023842;28;20599;-68
2021/07/15 07:50:32;;;;;;;93.30;39.97;;;20.00;99.90;;;;;;5021566;28;20472;-69
2021/07/15 07:52:59;;;;;;;65.27;38.63;;;20.20;99.90;;;;;;5024045;28;20465;-71
2021/07/15 07:55:28;;;;;;;69.27;38.50;;;20.30;99.90;;;;;;5017261;28;21003;-68
2021/07/15 07:57:55;;;;;;;68.43;39.53;;;20.20;99.90;;;;;;5022862;28;20843;-70
2021/07/15 08:00:22;;;;;;;63.63;37.33;;;20.00;99.90;;;;;;5021042;28;20465;-70
2021/07/15 08:02:49;;;;;;;63.80;36.90;;;20.20;99.90;;;;;;5018643;28;20469;-70
2021/07/15 08:05:20;;;;;;;49.63;36.93;;;20.10;99.90;;;;;;5020661;28;20995;-67
2021/07/15 08:07:49;;;;;;;46.57;35.30;;;20.40;99.90;;;;;;5020022;28;20544;-70
2021/07/15 08:10:17;;;;;;;43.40;31.93;;;20.70;99.90;;;;;;5025018;28;20472;-69
2021/07/15 08:12:45;;;;;;;39.03;30.77;;;20.70;99.90;;;;;;5017569;28;20460;-70
2021/07/15 08:15:14;;;;;;;32.33;29.10;;;21.10;99.90;;;;;;5023162;28;20468;-69
2021/07/15 08:17:41;;;;;;;34.10;28.07;;;21.20;99.90;;;;;;5019658;28;20454;-70
2021/07/15 08:20:11;;;;;;;32.93;29.43;;;21.70;99.90;;;;;;5021058;28;20554;-69
2021/07/15 08:22:39;;;;;;;34.90;29.63;;;21.80;99.90;;;;;;5019909;28;20460;-70
2021/07/15 08:25:09;;;;;;;36.60;31.57;;;22.00;99.90;;;;;;5020370;28;20462;-68
2021/07/15 08:27:36;;;;;;;32.70;29.70;;;22.20;99.90;;;;;;5021440;28;20464;-69
2021/07/15 08:30:07;;;;;;;35.90;32.20;;;22.10;99.90;;;;;;5021227;28;20836;-70
2021/07/15 08:32:34;;;;;;;33.67;30.40;;;21.50;99.90;;;;;;5020963;28;20461;-69
2021/07/15 08:35:01;;;;;;;34.03;30.83;;;21.80;99.90;;;;;;5021489;28;20461;-68
2021/07/15 08:37:28;;;;;;;33.30;30.23;;;21.80;99.90;;;;;;5021159;28;20481;-68
2021/07/15 08:39:55;;;;;;;31.47;28.40;;;22.20;99.90;;;;;;5019934;28;20496;-69
2021/07/15 08:42:23;;;;;;;30.17;26.20;;;22.50;99.90;;;;;;5017168;28;20470;-69
2021/07/15 08:44:50;;;;;;;27.80;25.30;;;22.40;99.90;;;;;;5028502;28;20456;-69
2021/07/15 08:47:20;;;;;;;27.83;25.63;;;22.10;99.90;;;;;;5016721;28;20480;-70
2021/07/15 08:49:48;;;;;;;26.50;24.30;;;22.40;99.90;;;;;;5019400;28;21318;-70
2021/07/15 08:52:16;;;;;;;25.40;23.47;;;22.60;99.90;;;;;;5017384;28;20461;-69
2021/07/15 08:54:59;;;;;;;27.53;25.20;;;22.80;99.90;;;;;;5023892;28;20473;-68
2021/07/15 08:57:25;;;;;;;28.90;26.40;;;22.90;99.90;;;;;;5022536;28;20462;-72
2021/07/15 08:59:52;;;;;;;26.40;24.20;;;22.80;99.90;;;;;;5022879;28;20496;-69
2021/07/15 09:02:22;;;;;;;26.03;23.70;;;22.90;99.90;;;;;;5020852;28;20465;-69
2021/07/15 09:04:51;;;;;;;25.27;23.23;;;23.20;99.90;;;;;;5021249;28;20457;-70
2021/07/15 09:07:19;;;;;;;26.23;23.50;;;23.60;99.90;;;;;;5015008;28;20649;-69
2021/07/15 09:09:46;;;;;;;24.40;22.50;;;24.20;99.90;;;;;;5022224;28;20467;-71
2021/07/15 09:12:13;;;;;;;23.30;21.50;;;24.50;99.90;;;;;;5025918;28;20848;-69
2021/07/15 09:14:49;;;;;;;23.20;21.33;;;24.70;99.90;;;;;;5022069;28;20472;-69
2021/07/15 09:17:26;;;;;;;21.97;20.37;;;24.80;99.90;;;;;;5018498;28;20464;-69
2021/07/15 09:19:55;;;;;;;22.83;20.83;;;24.70;99.90;;;;;;5018591;28;20489;-69
2021/07/15 09:22:22;;;;;;;23.03;21.13;;;25.00;99.90;;;;;;5018996;28;20511;-70
2021/07/15 09:24:50;;;;;;;21.80;20.00;;;25.20;99.90;;;;;;5016722;28;20487;-71
2021/07/15 09:27:19;;;;;;;23.63;21.73;;;25.50;99.90;;;;;;5025408;28;20468;-69
2021/07/15 09:30:06;;;;;;;22.40;20.87;;;25.00;99.90;;;;;;5023425;28;20471;-69
2021/07/15 09:32:32;;;;;;;22.27;20.17;;;24.30;99.90;;;;;;5015287;28;20487;-69
2021/07/15 09:35:06;;;;;;;22.53;20.57;;;24.10;99.90;;;;;;5020032;28;20488;-69
2021/07/15 09:37:34;;;;;;;21.13;19.40;;;23.80;99.90;;;;;;5021170;28;20481;-72
2021/07/15 09:40:01;;;;;;;23.13;21.37;;;23.80;99.90;;;;;;5018687;28;20493;-69
2021/07/15 09:42:29;;;;;;;21.77;20.07;;;23.70;99.90;;;;;;5017555;28;20457;-68
2021/07/15 09:44:56;;;;;;;21.03;19.53;;;23.90;99.90;;;;;;5020463;28;20488;-68
2021/07/15 09:47:34;;;;;;;21.07;19.50;;;23.80;99.90;;;;;;5022484;28;20846;-68
2021/07/15 09:50:04;;;;;;;22.33;20.60;;;23.80;99.90;;;;;;5021386;28;20468;-69
2021/07/15 09:52:31;;;;;;;21.83;20.20;;;23.80;99.90;;;;;;5019987;28;20464;-71
2021/07/15 09:55:20;;;;;;;22.60;19.90;;;23.80;99.90;;;;;;5024036;28;20473;-68
2021/07/15 09:57:49;;;;;;;21.03;19.53;;;23.90;99.90;;;;;;5022831;28;20539;-69
2021/07/15 10:00:18;;;;;;;21.03;19.53;;;23.80;99.90;;;;;;5024232;28;20496;-69
2021/07/15 10:02:45;;;;;;;21.97;19.93;;;23.70;99.90;;;;;;5021699;28;20465;-70
2021/07/15 10:05:16;;;;;;;22.73;20.93;;;23.70;99.90;;;;;;5024973;28;20465;-68
2021/07/15 10:07:47;;;;;;;22.63;20.73;;;23.80;99.90;;;;;;5023857;28;20474;-70
2021/07/15 10:10:19;;;;;;;22.70;20.90;;;23.70;99.90;;;;;;5023376;28;20461;-68
2021/07/15 10:12:47;;;;;;;24.93;22.30;;;23.40;99.90;;;;;;5023391;28;20819;-68
2021/07/15 10:15:15;;;;;;;25.17;22.97;;;23.30;99.90;;;;;;5026108;28;20464;-69
2021/07/15 10:17:43;;;;;;;24.90;22.70;;;23.20;99.90;;;;;;5026110;28;20461;-69
2021/07/15 10:20:14;;;;;;;24.90;22.40;;;23.00;99.90;;;;;;5019989;28;20493;-71
2021/07/15 10:22:43;;;;;;;23.70;21.17;;;23.10;99.90;;;;;;5028666;28;20460;-71
2021/07/15 10:25:11;;;;;;;24.00;21.60;;;23.10;99.90;;;;;;5024106;28;20900;-69
2021/07/15 10:27:40;;;;;;;22.20;20.40;;;23.20;99.90;;;;;;5019882;28;20963;-69
2021/07/15 10:30:07;;;;;;;20.13;18.53;;;23.20;99.90;;;;;;5026971;28;21045;-68
2021/07/15 10:32:36;;;;;;;22.70;20.50;;;23.00;99.90;;;;;;5026790;28;20468;-69
2021/07/15 10:35:05;;;;;;;21.73;19.77;;;22.80;99.90;;;;;;5027948;28;20824;-69
2021/07/15 10:37:38;;;;;;;22.00;20.00;;;22.80;99.90;;;;;;5021520;28;20621;-68
2021/07/15 10:40:10;;;;;;;21.70;19.70;;;22.40;99.90;;;;;;5024784;28;20862;-71
2021/07/15 10:42:38;;;;;;;21.47;19.70;;;22.60;99.90;;;;;;5020578;28;20464;-72
2021/07/15 10:45:05;;;;;;;22.43;20.33;;;22.70;99.90;;;;;;5023299;28;20457;-70
2021/07/15 10:47:34;;;;;;;21.40;19.40;;;22.80;99.90;;;;;;5016046;28;20471;-69
2021/07/15 10:50:01;;;;;;;20.47;18.70;;;23.20;99.90;;;;;;5025446;28;20972;-72
2021/07/15 10:52:28;;;;;;;20.90;19.30;;;23.30;99.90;;;;;;5024283;28;20861;-72
2021/07/15 10:54:56;;;;;;;18.70;17.50;;;23.50;99.90;;;;;;5022174;28;20984;-72
2021/07/15 10:57:25;;;;;;;19.00;17.60;;;23.30;99.90;;;;;;5025867;28;20457;-69
2021/07/15 10:59:53;;;;;;;16.40;15.40;;;23.00;99.90;;;;;;5022101;28;20485;-69
2021/07/15 11:02:23;;;;;;;17.00;15.90;;;22.90;99.90;;;;;;5019315;28;20466;-71
2021/07/15 11:04:51;;;;;;;16.23;15.33;;;22.80;99.90;;;;;;5025136;28;20463;-69
2021/07/15 11:07:22;;;;;;;16.10;15.00;;;22.50;99.90;;;;;;5020317;28;20532;-68
2021/07/15 11:09:51;;;;;;;15.47;14.60;;;22.40;99.90;;;;;;5023205;28;20660;-68
2021/07/15 11:12:32;;;;;;;15.20;14.30;;;22.30;99.90;;;;;;5020758;28;20988;-68
2021/07/15 11:15:07;;;;;;;14.13;13.40;;;22.50;99.90;;;;;;5024980;28;20464;-69
2021/07/15 11:17:41;;;;;;;15.00;13.80;;;22.90;99.90;;;;;;5023189;28;20887;-69
2021/07/15 11:20:11;;;;;;;14.27;13.47;;;23.00;99.90;;;;;;5020999;28;20492;-69
2021/07/15 11:22:45;;;;;;;14.93;14.13;;;23.20;99.90;;;;;;5022184;28;20464;-69
2021/07/15 11:25:15;;;;;;;15.10;14.10;;;23.00;99.90;;;;;;5020743;28;20976;-69
2021/07/15 11:27:46;;;;;;;14.30;13.50;;;23.00;99.90;;;;;;5024982;28;20465;-69
2021/07/15 11:30:28;;;;;;;15.10;14.30;;;22.90;99.90;;;;;;5023558;28;20489;-72
2021/07/15 11:32:56;;;;;;;14.10;13.40;;;23.00;99.90;;;;;;5018492;28;20551;-72
2021/07/15 11:35:27;;;;;;;15.33;14.53;;;23.30;99.90;;;;;;5024900;28;20464;-68
2021/07/15 11:38:24;;;;;;;16.40;15.50;;;23.40;99.90;;;;;;5024006;28;20469;-68
2021/07/15 11:40:51;;;;;;;15.87;15.00;;;23.00;99.90;;;;;;5007895;28;20496;-69
2021/07/15 11:43:31;;;;;;;15.90;14.97;;;22.60;99.90;;;;;;5021617;28;20456;-70
2021/07/15 11:46:09;;;;;;;15.27;14.47;;;22.50;99.90;;;;;;5021318;28;20467;-69
2021/07/15 11:49:04;;;;;;;14.60;13.80;;;22.30;99.90;;;;;;5020114;28;20464;-69
2021/07/15 11:51:44;;;;;;;15.50;14.60;;;22.10;99.90;;;;;;5021026;28;20486;-73
2021/07/15 11:54:22;;;;;;;16.47;15.40;;;22.20;99.90;;;;;;5023138;28;20473;-69
2021/07/15 11:56:52;;;;;;;15.73;14.63;;;22.00;99.90;;;;;;5023713;28;20552;-72
2021/07/15 11:59:38;;;;;;;17.30;16.10;;;21.70;99.90;;;;;;5019456;28;20492;-69
2021/07/15 12:02:19;;;;;;;18.53;17.33;;;21.50;99.90;;;;;;5026455;28;20829;-70
2021/07/15 12:05:06;;;;;;;18.67;17.37;;;21.20;99.90;;;;;;5024457;28;20468;-67
2021/07/15 12:07:34;;;;;;;20.23;18.80;;;21.10;99.90;;;;;;5019412;28;20465;-68
2021/07/15 12:10:04;;;;;;;21.10;19.70;;;21.00;99.90;;;;;;5018970;28;20488;-68
2021/07/15 12:12:31;;;;;;;24.40;22.60;;;20.90;99.90;;;;;;5023378;28;20462;-68
2021/07/15 12:14:59;;;;;;;22.57;20.83;;;21.00;99.90;;;;;;5025419;28;20470;-68
2021/07/15 12:17:31;;;;;;;24.30;21.87;;;21.00;99.90;;;;;;5023570;28;20465;-68
2021/07/15 12:20:01;;;;;;;23.17;21.57;;;21.00;99.90;;;;;;5023261;28;20847;-69
2021/07/15 12:22:42;;;;;;;22.60;20.80;;;21.00;99.90;;;;;;5023490;28;20461;-68
2021/07/15 12:25:14;;;;;;;32.43;21.37;;;21.10;99.90;;;;;;5018723;28;20469;-68
2021/07/15 12:27:43;;;;;;;23.70;21.97;;;21.30;99.90;;;;;;5022074;28;20461;-70
2021/07/15 12:30:13;;;;;;;22.97;21.47;;;21.40;99.90;;;;;;5023695;28;20472;-67
2021/07/15 12:32:51;;;;;;;23.60;21.80;;;21.60;99.90;;;;;;5024112;28;20947;-68
2021/07/15 12:35:19;;;;;;;23.87;22.10;;;21.90;99.90;;;;;;5022923;28;20476;-71
2021/07/15 12:37:47;;;;;;;25.20;23.30;;;22.10;99.90;;;;;;5021922;28;20847;-68